Nearby METAR Reports


RPLI - Laoag Intl Airport, Philippines
Distance from station: N 171km
Updated: Tue, 31-Jan-2023 11:00pm PST
NOT Current
Few Clouds
Few Clouds
 Wind from E
Wind: E 7 km/h
Temperature: 23°C
Dew Point: 19°C
Humidity: 78%
Barometer: 1013 hPa
Clouds: Few Clouds
Visibility: 10 km
Cloud details: Few Clouds 549 m
2023/01/31 15:00 RPLI 311500Z 10004KT 9999 FEW018 23/19 Q1013 NOSIG RMK A2991
RPLB - Olongapo/Subic, Philippines
Distance from station: S 205km
Updated: Wed, 01-Feb-2023 1:00am PST
Few Clouds
Few Clouds
 Wind from NE
Wind: NE 11 km/h
Temperature: 23°C
Dew Point: 18°C
Humidity: 74%
Barometer: 1013 hPa
Clouds: Few Clouds
Visibility: 10 km
Cloud details: Few Clouds 610 m
2023/01/31 17:00 RPLB 311700Z 05006KT 9999 FEW020 23/18 Q1013 NOSIG RMK A2991
 
RPLL - Ninoy Aquino Intl Airport, Philippines
Distance from station: SSE 247km
Updated: Wed, 01-Feb-2023 1:00am PST
Few Clouds
Few Clouds
 Wind from ESE
Wind: ESE 6 km/h
Temperature: 24°C
Dew Point: 21°C
Humidity: 83%
Barometer: 1012 hPa
Clouds: Few Clouds
Visibility: 10 km
Cloud details: Few Clouds 762 m
2023/01/31 17:00 RPLL 311700Z 11003KT 9999 FEW025 24/21 Q1012 NOSIG RMK A2988